Sunny Side, Georgia
Current Conditions -  °F | °C
As of 12:35 PM on Saturday 25 Oct 2014 (Local Time) from K6A2 Reporting Station
Clear Clear  
Wind Chill: 66°   Ceiling: Unl
Heat Index: 66°   Visibility: 10mi
Dew Point: 46°   Wind: 3mph
Humidity: 49%   Direction: 10°N
Pressure: 30.07"   Gusts: NA
Location:  33.34°N, 84.29°W
Report Text: K6A2 251635Z AUTO 01003KT 10SM CLR 19/08 A3007 RMK AO2
Loading
Personal Weather Stations






























Interactive Weather Map
Tropical Storm Tracking
New forecast layout! Learn more

10-Day Weather Forecast

Advertisements
Track Severe Weather on mobile